createdAt,value
2023-05-06T00:01:16.666Z,0
2023-05-06T00:02:57.059Z,0
2023-05-06T00:04:37.456Z,0
2023-05-06T00:06:17.815Z,0
2023-05-06T00:07:58.293Z,0
2023-05-06T00:09:38.685Z,0
2023-05-06T00:11:19.076Z,0
2023-05-06T00:12:59.498Z,0
2023-05-06T00:14:39.789Z,0
2023-05-06T00:16:20.222Z,0
2023-05-06T00:18:00.718Z,0
2023-05-06T00:19:41.036Z,0
2023-05-06T00:21:21.483Z,0
2023-05-06T00:23:01.886Z,0
2023-05-06T00:24:42.322Z,0
2023-05-06T00:26:22.682Z,0
2023-05-06T00:28:03.020Z,0
2023-05-06T00:29:43.493Z,0
2023-05-06T00:31:24.063Z,0
2023-05-06T00:33:04.487Z,0
2023-05-06T00:34:44.838Z,0
2023-05-06T00:36:25.130Z,0
2023-05-06T00:38:05.580Z,0
2023-05-06T00:39:45.944Z,0
2023-05-06T00:41:26.379Z,0
2023-05-06T00:43:06.749Z,0
2023-05-06T00:44:47.121Z,0
2023-05-06T00:46:27.616Z,0
2023-05-06T00:48:08.071Z,0
2023-05-06T00:49:48.449Z,0
2023-05-06T00:51:28.874Z,0
2023-05-06T00:53:09.238Z,0
2023-05-06T00:54:49.684Z,0
2023-05-06T00:56:30.069Z,0
2023-05-06T00:58:10.451Z,0
2023-05-06T00:59:50.872Z,0
2023-05-06T01:01:31.385Z,0
2023-05-06T01:03:11.775Z,0
2023-05-06T01:04:52.119Z,0
2023-05-06T01:06:32.564Z,0
2023-05-06T01:08:12.852Z,0
2023-05-06T01:09:53.179Z,0
2023-05-06T01:11:33.654Z,0
2023-05-06T01:13:14.222Z,0
2023-05-06T01:14:54.550Z,0
2023-05-06T01:16:35.029Z,0
2023-05-06T01:18:15.436Z,0
2023-05-06T01:19:55.838Z,0
2023-05-06T01:21:36.201Z,0
2023-05-06T01:23:16.649Z,0
2023-05-06T01:24:57.050Z,0
2023-05-06T01:26:37.421Z,0
2023-05-06T01:28:17.868Z,0
2023-05-06T01:29:58.291Z,0
2023-05-06T01:31:38.710Z,0
2023-05-06T01:33:19.055Z,0
2023-05-06T01:34:59.510Z,0
2023-05-06T01:36:39.932Z,0
2023-05-06T01:38:20.359Z,0
2023-05-06T01:40:00.761Z,0
2023-05-06T01:41:41.077Z,0
2023-05-06T01:43:21.436Z,0
2023-05-06T01:45:01.865Z,0
2023-05-06T01:46:42.357Z,0
2023-05-06T01:48:22.689Z,0
2023-05-06T01:50:03.028Z,0
2023-05-06T01:51:43.434Z,0
2023-05-06T01:53:23.886Z,0
2023-05-06T01:55:04.290Z,0
2023-05-06T01:56:44.612Z,0
2023-05-06T01:58:25.032Z,0
2023-05-06T02:00:05.397Z,0
2023-05-06T02:01:45.897Z,0
2023-05-06T02:03:26.270Z,0
2023-05-06T02:05:06.715Z,0
2023-05-06T02:06:47.106Z,0
2023-05-06T02:08:27.537Z,0
2023-05-06T02:10:07.959Z,0
2023-05-06T02:11:48.458Z,0
2023-05-06T02:13:28.824Z,0
2023-05-06T02:15:09.403Z,0
2023-05-06T02:16:49.428Z,0
2023-05-06T02:18:29.735Z,0
2023-05-06T02:20:10.051Z,0
2023-05-06T02:21:50.491Z,0
2023-05-06T02:23:30.922Z,0
2023-05-06T02:25:11.426Z,0
2023-05-06T02:26:51.656Z,0
2023-05-06T02:28:32.098Z,0
2023-05-06T02:30:12.390Z,0
2023-05-06T02:31:52.807Z,0
2023-05-06T02:33:33.177Z,0
2023-05-06T02:35:13.609Z,0
2023-05-06T02:36:54.095Z,0
2023-05-06T02:38:34.423Z,0
2023-05-06T02:40:14.787Z,0
2023-05-06T02:41:55.198Z,0
2023-05-06T02:43:35.700Z,0
2023-05-06T02:45:16.079Z,0
2023-05-06T02:46:56.477Z,0
2023-05-06T02:48:36.906Z,0
2023-05-06T02:50:17.313Z,0
2023-05-06T02:51:57.748Z,0
2023-05-06T02:53:38.159Z,0
2023-05-06T02:55:18.563Z,0
2023-05-06T02:56:58.952Z,0
2023-05-06T02:58:39.334Z,0
2023-05-06T03:00:19.789Z,0
2023-05-06T03:02:00.183Z,0
2023-05-06T03:03:40.595Z,0
2023-05-06T03:05:21.062Z,0
2023-05-06T03:07:01.514Z,0
2023-05-06T03:08:41.809Z,0
2023-05-06T03:10:22.137Z,0
2023-05-06T03:12:02.539Z,0
2023-05-06T03:13:43.016Z,0
2023-05-06T03:15:23.322Z,0
2023-05-06T03:17:03.771Z,0
2023-05-06T03:18:44.175Z,0
2023-05-06T03:20:24.568Z,0
2023-05-06T03:22:04.939Z,0
2023-05-06T03:23:45.369Z,0
2023-05-06T03:25:25.748Z,0
2023-05-06T03:27:06.119Z,0
2023-05-06T03:28:46.529Z,0
2023-05-06T03:30:26.987Z,0
2023-05-06T03:32:07.441Z,0
2023-05-06T03:33:47.884Z,0
2023-05-06T03:35:28.297Z,0
2023-05-06T03:37:08.722Z,0
2023-05-06T03:38:49.090Z,0
2023-05-06T03:40:29.502Z,0
2023-05-06T03:42:10.075Z,0
2023-05-06T03:43:50.209Z,0
2023-05-06T03:45:30.538Z,0
2023-05-06T03:47:10.859Z,0
2023-05-06T03:48:51.172Z,0
2023-05-06T03:50:31.511Z,0
2023-05-06T03:52:11.847Z,0
2023-05-06T03:53:54.658Z,0
2023-05-06T03:55:32.683Z,0
2023-05-06T03:57:13.122Z,0
2023-05-06T03:58:53.549Z,0
2023-05-06T04:00:34.026Z,0
2023-05-06T04:02:14.542Z,0
2023-05-06T04:03:54.929Z,0
2023-05-06T04:05:35.314Z,0
2023-05-06T04:07:15.649Z,0
2023-05-06T04:08:56.103Z,0
2023-05-06T04:10:36.568Z,0
2023-05-06T04:12:16.925Z,0
2023-05-06T04:13:57.320Z,0
2023-05-06T04:15:37.695Z,1
2023-05-06T04:17:18.085Z,1
2023-05-06T04:18:58.530Z,2
2023-05-06T04:20:38.924Z,2
2023-05-06T04:22:19.243Z,2
2023-05-06T04:23:59.544Z,2
2023-05-06T04:25:39.894Z,3
2023-05-06T04:27:20.263Z,3
2023-05-06T04:29:00.581Z,3
2023-05-06T04:30:40.859Z,3
2023-05-06T04:32:21.163Z,4
2023-05-06T04:34:01.535Z,4
2023-05-06T04:35:41.992Z,4
2023-05-06T04:37:22.389Z,4
2023-05-06T04:39:02.863Z,5
2023-05-06T04:40:43.439Z,5
2023-05-06T04:42:23.746Z,5
2023-05-06T04:44:04.145Z,5
2023-05-06T04:45:44.648Z,5
2023-05-06T04:47:24.961Z,6
2023-05-06T04:49:05.455Z,7
2023-05-06T04:50:45.837Z,7
2023-05-06T04:52:26.211Z,7
2023-05-06T04:54:06.636Z,7
2023-05-06T04:55:47.054Z,7
2023-05-06T04:57:27.461Z,7
2023-05-06T04:59:07.865Z,7
2023-05-06T05:00:48.294Z,6
2023-05-06T05:02:28.809Z,6
2023-05-06T05:04:09.118Z,6
2023-05-06T05:05:49.466Z,5
2023-05-06T05:07:29.776Z,5
2023-05-06T05:09:10.102Z,4
2023-05-06T05:10:50.571Z,4
2023-05-06T05:12:30.930Z,4
2023-05-06T05:14:11.361Z,4
2023-05-06T05:15:51.750Z,4
2023-05-06T05:17:32.287Z,5
2023-05-06T05:19:12.695Z,5
2023-05-06T05:20:53.167Z,6
2023-05-06T05:22:33.660Z,7
2023-05-06T05:24:14.060Z,7
2023-05-06T05:25:54.493Z,8
2023-05-06T05:27:34.959Z,8
2023-05-06T05:29:15.393Z,8
2023-05-06T05:30:55.834Z,9
2023-05-06T05:32:36.277Z,9
2023-05-06T05:34:16.583Z,9
2023-05-06T05:35:56.977Z,9
2023-05-06T05:37:37.285Z,9
2023-05-06T05:39:17.665Z,9
2023-05-06T05:40:58.073Z,9
2023-05-06T05:42:38.464Z,17
2023-05-06T05:44:18.922Z,20
2023-05-06T05:45:59.310Z,21
2023-05-06T05:47:39.765Z,22
2023-05-06T05:49:20.095Z,23
2023-05-06T05:51:00.464Z,24
2023-05-06T05:52:40.862Z,24
2023-05-06T05:54:21.285Z,24
2023-05-06T05:56:01.680Z,24
2023-05-06T05:57:42.088Z,25
2023-05-06T05:59:22.514Z,25
2023-05-06T06:01:02.970Z,24
2023-05-06T06:02:43.440Z,16
2023-05-06T06:04:23.834Z,28
2023-05-06T06:06:04.284Z,28
2023-05-06T06:07:44.710Z,29
2023-05-06T06:09:25.104Z,30
2023-05-06T06:11:05.422Z,30
2023-05-06T06:12:45.786Z,31
2023-05-06T06:14:26.249Z,32
2023-05-06T06:16:06.741Z,33
2023-05-06T06:17:47.261Z,34
2023-05-06T06:19:27.577Z,35
2023-05-06T06:21:08.010Z,35
2023-05-06T06:22:48.455Z,35
2023-05-06T06:24:28.797Z,35
2023-05-06T06:26:11.011Z,35
2023-05-06T06:27:49.682Z,36
2023-05-06T06:29:30.074Z,37
2023-05-06T06:31:10.624Z,39
2023-05-06T06:32:51.047Z,43
2023-05-06T06:34:31.424Z,44
2023-05-06T06:36:11.903Z,45
2023-05-06T06:37:52.342Z,47
2023-05-06T06:39:32.726Z,48
2023-05-06T06:41:12.996Z,48
2023-05-06T06:42:53.331Z,39
2023-05-06T06:44:33.751Z,48
2023-05-06T06:46:14.231Z,46
2023-05-06T06:47:54.576Z,46
2023-05-06T06:49:35.105Z,47
2023-05-06T06:51:15.557Z,48
2023-05-06T06:52:55.963Z,48
2023-05-06T06:54:36.414Z,48
2023-05-06T06:56:16.829Z,50
2023-05-06T06:57:57.280Z,51
2023-05-06T06:59:37.719Z,51
2023-05-06T07:01:18.108Z,52
2023-05-06T07:02:58.493Z,52
2023-05-06T07:04:39.054Z,52
2023-05-06T07:06:19.371Z,52
2023-05-06T07:07:59.795Z,53
2023-05-06T07:09:40.382Z,54
2023-05-06T07:11:20.606Z,56
2023-05-06T07:13:01.039Z,55
2023-05-06T07:14:41.322Z,58
2023-05-06T07:16:21.628Z,59
2023-05-06T07:18:01.953Z,59
2023-05-06T07:19:42.244Z,59
2023-05-06T07:21:22.555Z,60
2023-05-06T07:23:02.980Z,62
2023-05-06T07:24:43.443Z,63
2023-05-06T07:26:23.946Z,63
2023-05-06T07:28:04.274Z,59
2023-05-06T07:29:44.604Z,60
2023-05-06T07:31:25.120Z,66
2023-05-06T07:33:05.554Z,68
2023-05-06T07:34:45.942Z,70
2023-05-06T07:36:26.425Z,22
2023-05-06T07:38:06.823Z,42
2023-05-06T07:39:47.255Z,68
2023-05-06T07:41:27.672Z,73
2023-05-06T07:43:08.063Z,23
2023-05-06T07:44:48.448Z,18
2023-05-06T07:46:29.000Z,20
2023-05-06T07:48:09.311Z,72
2023-05-06T07:49:49.692Z,71
2023-05-06T07:51:29.996Z,73
2023-05-06T07:53:10.397Z,74
2023-05-06T07:54:50.817Z,77
2023-05-06T07:56:31.185Z,79
2023-05-06T07:58:11.628Z,80
2023-05-06T07:59:52.059Z,82
2023-05-06T08:01:32.440Z,82
2023-05-06T08:03:13.054Z,85
2023-05-06T08:04:53.291Z,83
2023-05-06T08:06:33.753Z,86
2023-05-06T08:08:14.138Z,86
2023-05-06T08:09:54.558Z,86
2023-05-06T08:11:35.014Z,85
2023-05-06T08:13:15.538Z,82
2023-05-06T08:14:55.925Z,83
2023-05-06T08:16:36.474Z,84
2023-05-06T08:18:22.309Z,84
2023-05-06T08:19:57.247Z,84
2023-05-06T08:21:37.600Z,77
2023-05-06T08:23:18.004Z,81
2023-05-06T08:24:58.412Z,85
2023-05-06T08:26:38.820Z,85
2023-05-06T08:28:19.218Z,86
2023-05-06T08:29:59.687Z,87
2023-05-06T08:31:40.105Z,87
2023-05-06T08:33:20.520Z,87
2023-05-06T08:35:00.925Z,88
2023-05-06T08:36:41.372Z,87
2023-05-06T08:38:21.749Z,89
2023-05-06T08:40:02.174Z,89
2023-05-06T08:41:42.668Z,90
2023-05-06T08:43:23.051Z,91
2023-05-06T08:45:03.552Z,92
2023-05-06T08:46:43.959Z,92
2023-05-06T08:48:24.405Z,93
2023-05-06T08:50:04.832Z,91
2023-05-06T08:51:45.288Z,93
2023-05-06T08:53:25.623Z,93
2023-05-06T08:55:06.047Z,94
2023-05-06T08:56:46.424Z,96
2023-05-06T08:58:26.905Z,96
2023-05-06T09:00:07.251Z,96
2023-05-06T09:01:47.573Z,97
2023-05-06T09:03:28.188Z,97
2023-05-06T09:05:08.657Z,99
2023-05-06T09:06:48.922Z,98
2023-05-06T09:08:29.396Z,96
2023-05-06T09:10:10.078Z,98
2023-05-06T09:11:50.253Z,98
2023-05-06T09:13:30.715Z,99
2023-05-06T09:15:11.410Z,99
2023-05-06T09:16:51.693Z,99
2023-05-06T09:18:32.076Z,98
2023-05-06T09:20:12.547Z,99
2023-05-06T09:21:52.946Z,99
2023-05-06T09:23:33.440Z,99
2023-05-06T09:25:13.780Z,99
2023-05-06T09:26:54.205Z,99
2023-05-06T09:28:34.656Z,99
2023-05-06T09:30:15.118Z,98
2023-05-06T09:31:55.409Z,99
2023-05-06T09:33:35.710Z,99
2023-05-06T09:35:16.055Z,99
2023-05-06T09:36:56.519Z,99
2023-05-06T09:38:36.912Z,99
2023-05-06T09:40:17.411Z,99
2023-05-06T09:41:57.794Z,99
2023-05-06T09:43:38.207Z,99
2023-05-06T09:45:18.622Z,99
2023-05-06T09:46:59.020Z,99
2023-05-06T09:48:39.498Z,99
2023-05-06T09:50:19.870Z,99
2023-05-06T09:52:00.344Z,99
2023-05-06T09:53:40.798Z,99
2023-05-06T09:55:21.203Z,44
2023-05-06T09:57:01.607Z,36
2023-05-06T09:58:42.070Z,35
2023-05-06T10:00:22.554Z,39
2023-05-06T10:02:03.063Z,59
2023-05-06T10:03:43.460Z,99
2023-05-06T10:05:23.867Z,99
2023-05-06T10:07:04.271Z,37
2023-05-06T10:08:44.647Z,39
2023-05-06T10:10:25.573Z,29
2023-05-06T10:12:05.412Z,52
2023-05-06T10:13:45.687Z,99
2023-05-06T10:15:26.007Z,99
2023-05-06T10:17:06.297Z,99
2023-05-06T10:18:46.735Z,43
2023-05-06T10:20:27.094Z,99
2023-05-06T10:22:07.478Z,97
2023-05-06T10:23:47.908Z,99
2023-05-06T10:25:28.281Z,45
2023-05-06T10:27:08.679Z,54
2023-05-06T10:28:49.100Z,99
2023-05-06T10:30:29.592Z,99
2023-05-06T10:32:10.008Z,99
2023-05-06T10:33:50.439Z,99
2023-05-06T10:35:30.861Z,99
2023-05-06T10:37:11.287Z,99
2023-05-06T10:38:51.625Z,99
2023-05-06T10:40:32.126Z,99
2023-05-06T10:42:12.604Z,99
2023-05-06T10:43:53.060Z,52
2023-05-06T10:45:33.519Z,51
2023-05-06T10:47:13.817Z,82
2023-05-06T10:48:54.242Z,37
2023-05-06T10:50:34.640Z,39
2023-05-06T10:52:15.166Z,43
2023-05-06T10:53:55.578Z,99
2023-05-06T10:55:35.927Z,99
2023-05-06T10:57:16.333Z,99
2023-05-06T10:58:56.782Z,39
2023-05-06T11:00:37.216Z,99
2023-05-06T11:02:17.743Z,99
2023-05-06T11:03:58.078Z,99
2023-05-06T11:05:38.541Z,99
2023-05-06T11:07:18.975Z,99
2023-05-06T11:08:59.378Z,99
2023-05-06T11:10:39.740Z,99
2023-05-06T11:12:20.127Z,99
2023-05-06T11:14:00.498Z,99
2023-05-06T11:15:40.922Z,77
2023-05-06T11:17:21.228Z,99
2023-05-06T11:19:01.497Z,99
2023-05-06T11:20:41.785Z,99
2023-05-06T11:22:22.094Z,99
2023-05-06T11:24:02.407Z,55
2023-05-06T11:25:42.777Z,87
2023-05-06T11:27:23.029Z,48
2023-05-06T11:29:03.374Z,41
2023-05-06T11:30:43.809Z,46
2023-05-06T11:32:24.230Z,47
2023-05-06T11:34:04.596Z,71
2023-05-06T11:35:45.008Z,99
2023-05-06T11:37:25.453Z,99
2023-05-06T11:39:05.783Z,99
2023-05-06T11:40:46.173Z,99
2023-05-06T11:42:26.541Z,99
2023-05-06T11:44:07.587Z,99
2023-05-06T11:45:47.420Z,99
2023-05-06T11:47:27.830Z,74
2023-05-06T11:49:08.082Z,43
2023-05-06T11:50:48.529Z,40
2023-05-06T11:52:28.934Z,47
2023-05-06T11:54:09.378Z,43
2023-05-06T11:55:49.782Z,40
2023-05-06T11:57:30.157Z,39
2023-05-06T11:59:10.566Z,38
2023-05-06T12:00:51.359Z,99
2023-05-06T12:02:31.421Z,99
2023-05-06T12:04:11.785Z,99
2023-05-06T12:05:52.117Z,99
2023-05-06T12:07:32.412Z,99
2023-05-06T12:09:12.901Z,40
2023-05-06T12:10:53.302Z,44
2023-05-06T12:12:33.713Z,46
2023-05-06T12:14:14.052Z,40
2023-05-06T12:15:54.507Z,33
2023-05-06T12:17:34.891Z,33
2023-05-06T12:19:15.269Z,35
2023-05-06T12:20:55.667Z,33
2023-05-06T12:22:36.115Z,35
2023-05-06T12:24:16.637Z,44
2023-05-06T12:25:56.987Z,99
2023-05-06T12:27:37.404Z,99
2023-05-06T12:29:17.773Z,99
2023-05-06T12:30:58.136Z,99
2023-05-06T12:32:38.567Z,99
2023-05-06T12:34:18.980Z,99
2023-05-06T12:35:59.396Z,99
2023-05-06T12:37:39.729Z,45
2023-05-06T12:39:20.131Z,99
2023-05-06T12:41:00.467Z,48
2023-05-06T12:42:40.866Z,47
2023-05-06T12:44:21.246Z,53
2023-05-06T12:46:01.711Z,76
2023-05-06T12:47:42.285Z,99
2023-05-06T12:49:22.629Z,97
2023-05-06T12:51:03.041Z,53
2023-05-06T12:52:43.397Z,74
2023-05-06T12:54:23.778Z,99
2023-05-06T12:56:04.175Z,99
2023-05-06T12:57:44.567Z,99
2023-05-06T12:59:25.051Z,99
2023-05-06T13:01:05.492Z,99
2023-05-06T13:02:46.028Z,99
2023-05-06T13:04:26.458Z,99
2023-05-06T13:06:06.834Z,99
2023-05-06T13:07:47.201Z,99
2023-05-06T13:09:27.586Z,99
2023-05-06T13:11:08.116Z,98
2023-05-06T13:12:48.487Z,96
2023-05-06T13:14:28.765Z,66
2023-05-06T13:16:09.075Z,99
2023-05-06T13:17:49.422Z,99
2023-05-06T13:19:32.766Z,99
2023-05-06T13:21:10.183Z,99
2023-05-06T13:22:54.942Z,99
2023-05-06T13:24:31.070Z,99
2023-05-06T13:26:11.517Z,96
2023-05-06T13:27:51.946Z,98
2023-05-06T13:29:32.385Z,96
2023-05-06T13:31:12.945Z,92
2023-05-06T13:32:53.258Z,86
2023-05-06T13:34:33.561Z,81
2023-05-06T13:36:14.002Z,75
2023-05-06T13:37:54.343Z,82
2023-05-06T13:39:34.747Z,84
2023-05-06T13:41:15.142Z,86
2023-05-06T13:42:55.566Z,88
2023-05-06T13:44:35.989Z,88
2023-05-06T13:46:16.469Z,87
2023-05-06T13:47:56.879Z,83
2023-05-06T13:49:37.147Z,68
2023-05-06T13:51:17.448Z,77
2023-05-06T13:52:57.766Z,75
2023-05-06T13:54:38.050Z,76
2023-05-06T13:56:18.379Z,82
2023-05-06T13:57:58.825Z,80
2023-05-06T13:59:39.233Z,78
2023-05-06T14:01:19.669Z,75
2023-05-06T14:03:00.109Z,81
2023-05-06T14:04:40.461Z,79
2023-05-06T14:06:20.819Z,77
2023-05-06T14:08:01.308Z,72
2023-05-06T14:09:41.718Z,33
2023-05-06T14:11:22.161Z,74
2023-05-06T14:13:04.571Z,70
2023-05-06T14:14:42.998Z,31
2023-05-06T14:16:23.480Z,32
2023-05-06T14:18:03.822Z,33
2023-05-06T14:19:44.124Z,52
2023-05-06T14:21:24.553Z,35
2023-05-06T14:23:05.025Z,31
2023-05-06T14:24:45.462Z,31
2023-05-06T14:26:25.938Z,32
2023-05-06T14:28:06.290Z,35
2023-05-06T14:29:46.583Z,60
2023-05-06T14:31:26.951Z,77
2023-05-06T14:33:07.528Z,79
2023-05-06T14:34:47.748Z,77
2023-05-06T14:36:28.251Z,67
2023-05-06T14:38:08.692Z,66
2023-05-06T14:39:49.039Z,72
2023-05-06T14:41:29.510Z,72
2023-05-06T14:43:09.992Z,74
2023-05-06T14:44:50.317Z,71
2023-05-06T14:46:30.792Z,35
2023-05-06T14:48:11.162Z,34
2023-05-06T14:49:51.504Z,45
2023-05-06T14:51:31.917Z,43
2023-05-06T14:53:12.351Z,74
2023-05-06T14:54:52.748Z,41
2023-05-06T14:56:33.136Z,38
2023-05-06T14:58:13.533Z,35
2023-05-06T14:59:53.955Z,31
2023-05-06T15:01:34.415Z,31
2023-05-06T15:03:14.867Z,30
2023-05-06T15:04:55.326Z,28
2023-05-06T15:06:35.837Z,25
2023-05-06T15:08:16.361Z,22
2023-05-06T15:09:56.651Z,22
2023-05-06T15:11:37.087Z,21
2023-05-06T15:13:17.629Z,20
2023-05-06T15:14:57.965Z,20
2023-05-06T15:16:38.522Z,20
2023-05-06T15:18:18.875Z,19
2023-05-06T15:19:59.332Z,19
2023-05-06T15:21:39.663Z,20
2023-05-06T15:23:20.071Z,20
2023-05-06T15:25:00.432Z,21
2023-05-06T15:26:40.882Z,21
2023-05-06T15:28:23.711Z,21
2023-05-06T15:30:01.692Z,21
2023-05-06T15:31:42.131Z,21
2023-05-06T15:33:22.554Z,22
2023-05-06T15:35:02.946Z,22
2023-05-06T15:36:43.309Z,23
2023-05-06T15:38:23.718Z,28
2023-05-06T15:40:04.098Z,26
2023-05-06T15:41:44.450Z,24
2023-05-06T15:43:24.936Z,24
2023-05-06T15:45:05.285Z,24
2023-05-06T15:46:45.740Z,27
2023-05-06T15:48:26.148Z,34
2023-05-06T15:50:16.419Z,31
2023-05-06T15:51:47.032Z,49
2023-05-06T15:53:27.416Z,51
2023-05-06T15:55:07.910Z,48
2023-05-06T15:56:48.301Z,32
2023-05-06T15:58:28.737Z,26
2023-05-06T16:00:09.403Z,30
2023-05-06T16:03:30.222Z,36
2023-05-06T16:05:10.444Z,36
2023-05-06T16:06:50.792Z,36
2023-05-06T16:08:31.178Z,36
2023-05-06T16:10:11.857Z,34
2023-05-06T16:11:52.070Z,31
2023-05-06T16:13:32.478Z,31
2023-05-06T16:15:12.925Z,31
2023-05-06T16:16:53.351Z,29
2023-05-06T16:18:33.745Z,21
2023-05-06T16:20:14.149Z,18
2023-05-06T16:21:54.543Z,17
2023-05-06T16:23:34.990Z,17
2023-05-06T16:25:15.328Z,17
2023-05-06T16:26:55.800Z,17
2023-05-06T16:28:37.402Z,17
2023-05-06T16:30:16.567Z,19
2023-05-06T16:31:56.995Z,20
2023-05-06T16:33:37.362Z,18
2023-05-06T16:35:17.815Z,18
2023-05-06T16:36:58.184Z,19
2023-05-06T16:38:38.554Z,21
2023-05-06T16:40:18.971Z,18
2023-05-06T16:41:59.441Z,18
2023-05-06T16:43:39.886Z,19
2023-05-06T16:45:20.303Z,18
2023-05-06T16:47:00.841Z,18
2023-05-06T16:48:41.261Z,19
2023-05-06T16:50:21.709Z,18
2023-05-06T16:52:02.190Z,18
2023-05-06T16:53:42.694Z,17
2023-05-06T16:55:23.147Z,16
2023-05-06T16:57:03.580Z,16
2023-05-06T16:58:43.942Z,15
2023-05-06T17:00:24.332Z,15
2023-05-06T17:02:04.848Z,15
2023-05-06T17:03:45.099Z,14
2023-05-06T17:05:25.522Z,14
2023-05-06T17:07:05.916Z,14
2023-05-06T17:08:46.421Z,13
2023-05-06T17:10:26.856Z,13
2023-05-06T17:12:07.352Z,13
2023-05-06T17:13:47.866Z,12
2023-05-06T17:15:28.221Z,12
2023-05-06T17:17:08.595Z,12
2023-05-06T17:18:48.974Z,12
2023-05-06T17:20:29.326Z,12
2023-05-06T17:22:12.680Z,11
2023-05-06T17:23:53.066Z,11
2023-05-06T17:25:30.354Z,11
2023-05-06T17:27:10.826Z,11
2023-05-06T17:28:51.257Z,10
2023-05-06T17:30:31.580Z,10
2023-05-06T17:32:14.937Z,9
2023-05-06T17:33:52.305Z,9
2023-05-06T17:35:32.758Z,9
2023-05-06T17:37:13.215Z,8
2023-05-06T17:38:53.547Z,8
2023-05-06T17:40:33.990Z,7
2023-05-06T17:42:14.314Z,7
2023-05-06T17:43:54.732Z,7
2023-05-06T17:45:35.197Z,6
2023-05-06T17:47:15.574Z,6
2023-05-06T17:48:55.982Z,6
2023-05-06T17:50:36.415Z,5
2023-05-06T17:52:16.792Z,5
2023-05-06T17:53:57.240Z,5
2023-05-06T17:55:37.631Z,4
2023-05-06T17:57:18.037Z,4
2023-05-06T17:58:58.528Z,4
2023-05-06T18:00:38.951Z,4
2023-05-06T18:02:19.376Z,3
2023-05-06T18:03:59.796Z,3
2023-05-06T18:05:40.081Z,3
2023-05-06T18:07:20.445Z,3
2023-05-06T18:09:00.850Z,3
2023-05-06T18:10:41.586Z,2
2023-05-06T18:12:21.609Z,2
2023-05-06T18:14:02.051Z,2
2023-05-06T18:15:42.497Z,2
2023-05-06T18:17:22.890Z,2
2023-05-06T18:19:03.276Z,1
2023-05-06T18:20:43.739Z,1
2023-05-06T18:22:24.170Z,1
2023-05-06T18:24:15.262Z,0
2023-05-06T18:25:44.969Z,0
2023-05-06T18:27:25.353Z,0
2023-05-06T18:29:05.793Z,0
2023-05-06T18:30:46.124Z,0
2023-05-06T18:32:26.552Z,0
2023-05-06T18:34:06.969Z,0
2023-05-06T18:35:47.361Z,0
2023-05-06T18:37:27.809Z,0
2023-05-06T18:39:08.256Z,0
2023-05-06T18:40:48.714Z,0
2023-05-06T18:42:29.123Z,0
2023-05-06T18:44:09.573Z,0
2023-05-06T18:45:49.976Z,0
2023-05-06T18:47:30.453Z,0
2023-05-06T18:49:10.891Z,0
2023-05-06T18:50:51.379Z,0
2023-05-06T18:52:31.794Z,0
2023-05-06T18:54:14.009Z,0
2023-05-06T18:55:52.676Z,0
2023-05-06T18:57:33.114Z,0
2023-05-06T18:59:13.520Z,0
2023-05-06T19:00:53.969Z,0
2023-05-06T19:02:34.409Z,0
2023-05-06T19:04:14.900Z,0
2023-05-06T19:05:55.264Z,0
2023-05-06T19:07:35.676Z,0
2023-05-06T19:09:16.096Z,0
2023-05-06T19:10:56.477Z,0
2023-05-06T19:12:36.869Z,0
2023-05-06T19:14:17.229Z,0
2023-05-06T19:15:57.612Z,0
2023-05-06T19:17:38.064Z,0
2023-05-06T19:19:18.518Z,0
2023-05-06T19:20:58.934Z,0
2023-05-06T19:22:39.304Z,0
2023-05-06T19:24:19.772Z,0
2023-05-06T19:26:00.159Z,0
2023-05-06T19:27:40.488Z,0
2023-05-06T19:29:20.930Z,0
2023-05-06T19:31:01.650Z,0
2023-05-06T19:32:41.782Z,0
2023-05-06T19:34:22.080Z,0
2023-05-06T19:36:02.525Z,0
2023-05-06T19:37:42.985Z,0
2023-05-06T19:39:23.285Z,0
2023-05-06T19:41:03.789Z,0
2023-05-06T19:42:44.208Z,0
2023-05-06T19:44:24.700Z,0
2023-05-06T19:46:05.091Z,0
2023-05-06T19:47:45.509Z,0
2023-05-06T19:49:25.861Z,0
2023-05-06T19:51:06.287Z,0
2023-05-06T19:52:46.663Z,0
2023-05-06T19:54:27.046Z,0
2023-05-06T19:56:07.433Z,0
2023-05-06T19:57:47.869Z,0
2023-05-06T19:59:28.289Z,0
2023-05-06T20:01:08.746Z,0
2023-05-06T20:02:49.210Z,0
2023-05-06T20:04:29.592Z,0
2023-05-06T20:06:09.951Z,0
2023-05-06T20:07:50.331Z,0
2023-05-06T20:09:30.834Z,0
2023-05-06T20:11:11.183Z,0
2023-05-06T20:12:51.609Z,0
2023-05-06T20:14:31.966Z,0
2023-05-06T20:16:12.484Z,0
2023-05-06T20:17:52.933Z,0
2023-05-06T20:19:33.241Z,0
2023-05-06T20:21:13.621Z,0
2023-05-06T20:22:53.973Z,0
2023-05-06T20:24:34.390Z,0
2023-05-06T20:26:14.748Z,0
2023-05-06T20:27:55.058Z,0
2023-05-06T20:29:35.394Z,0
2023-05-06T20:31:15.931Z,0
2023-05-06T20:32:56.363Z,0
2023-05-06T20:34:36.664Z,0
2023-05-06T20:36:17.037Z,0
2023-05-06T20:37:57.438Z,0
2023-05-06T20:39:37.843Z,0
2023-05-06T20:41:18.219Z,0
2023-05-06T20:42:58.657Z,0
2023-05-06T20:44:39.100Z,0
2023-05-06T20:46:19.646Z,0
2023-05-06T20:47:59.983Z,0
2023-05-06T20:49:40.338Z,0
2023-05-06T20:51:20.691Z,0
2023-05-06T20:53:01.196Z,0
2023-05-06T20:54:41.538Z,0
2023-05-06T20:56:21.994Z,0
2023-05-06T20:58:02.377Z,0
2023-05-06T20:59:42.856Z,0
2023-05-06T21:01:23.352Z,0
2023-05-06T21:03:03.867Z,0
2023-05-06T21:04:44.100Z,0
2023-05-06T21:06:24.546Z,0
2023-05-06T21:08:04.930Z,0
2023-05-06T21:09:45.367Z,0
2023-05-06T21:11:27.707Z,0
2023-05-06T21:13:06.249Z,0
2023-05-06T21:14:46.491Z,0
2023-05-06T21:16:26.894Z,0
2023-05-06T21:18:07.393Z,0
2023-05-06T21:19:47.686Z,0
2023-05-06T21:21:28.085Z,0
2023-05-06T21:23:08.541Z,0
2023-05-06T21:24:49.019Z,0
2023-05-06T21:26:29.357Z,0
2023-05-06T21:28:09.792Z,0
2023-05-06T21:29:50.204Z,0
2023-05-06T21:31:30.750Z,0
2023-05-06T21:33:11.263Z,0
2023-05-06T21:34:51.410Z,0
2023-05-06T21:36:31.819Z,0
2023-05-06T21:38:12.285Z,0
2023-05-06T21:39:52.754Z,0
2023-05-06T21:41:33.114Z,0
2023-05-06T21:43:13.521Z,0
2023-05-06T21:44:53.945Z,0
2023-05-06T21:46:34.411Z,0
2023-05-06T21:48:14.805Z,0
2023-05-06T21:49:55.103Z,0
2023-05-06T21:51:35.520Z,0
2023-05-06T21:53:15.928Z,0
2023-05-06T21:54:56.373Z,0
2023-05-06T21:56:36.761Z,0
2023-05-06T21:58:17.137Z,0
2023-05-06T21:59:57.504Z,0
2023-05-06T22:01:37.966Z,0
2023-05-06T22:03:18.484Z,0
2023-05-06T22:04:58.779Z,0
2023-05-06T22:06:39.311Z,0
2023-05-06T22:08:19.785Z,0
2023-05-06T22:10:00.190Z,0
2023-05-06T22:11:40.540Z,0
2023-05-06T22:13:22.863Z,0
2023-05-06T22:15:01.351Z,0
2023-05-06T22:16:41.876Z,0
2023-05-06T22:18:22.213Z,0
2023-05-06T22:20:02.570Z,0
2023-05-06T22:21:42.916Z,0
2023-05-06T22:23:23.338Z,0
2023-05-06T22:25:03.759Z,0
2023-05-06T22:26:44.217Z,0
2023-05-06T22:28:24.591Z,0
2023-05-06T22:30:04.920Z,0
2023-05-06T22:31:45.423Z,0
2023-05-06T22:33:25.850Z,0
2023-05-06T22:35:06.153Z,0
2023-05-06T22:36:46.590Z,0
2023-05-06T22:38:27.030Z,0
2023-05-06T22:40:07.425Z,0
2023-05-06T22:41:47.822Z,0
2023-05-06T22:43:28.235Z,0
2023-05-06T22:45:09.164Z,0
2023-05-06T22:46:49.070Z,0
2023-05-06T22:48:29.476Z,0
2023-05-06T22:50:09.879Z,0
2023-05-06T22:51:50.324Z,0
2023-05-06T22:53:30.746Z,0
2023-05-06T22:55:11.463Z,0
2023-05-06T22:56:51.648Z,0
2023-05-06T22:58:31.930Z,0
2023-05-06T23:00:12.463Z,0
2023-05-06T23:01:52.861Z,0
2023-05-06T23:03:33.293Z,0
2023-05-06T23:05:13.772Z,0
2023-05-06T23:06:54.120Z,0
2023-05-06T23:08:34.465Z,0
2023-05-06T23:10:14.951Z,0
2023-05-06T23:11:55.323Z,0
2023-05-06T23:13:35.684Z,0
2023-05-06T23:15:16.097Z,0
2023-05-06T23:16:56.507Z,0
2023-05-06T23:18:36.918Z,0
2023-05-06T23:20:17.368Z,0
2023-05-06T23:21:57.738Z,0
2023-05-06T23:23:38.086Z,0
2023-05-06T23:25:18.518Z,0
2023-05-06T23:26:58.886Z,0
2023-05-06T23:28:39.296Z,0
2023-05-06T23:30:19.724Z,0
2023-05-06T23:32:00.097Z,0
2023-05-06T23:33:40.607Z,0
2023-05-06T23:35:20.985Z,0
2023-05-06T23:37:01.336Z,0
2023-05-06T23:38:41.704Z,0
2023-05-06T23:40:22.116Z,0
2023-05-06T23:42:02.434Z,0
2023-05-06T23:43:42.830Z,0
2023-05-06T23:45:23.311Z,0
2023-05-06T23:47:03.721Z,0
2023-05-06T23:48:44.149Z,0
2023-05-06T23:50:24.552Z,0
2023-05-06T23:52:04.941Z,0
2023-05-06T23:53:45.351Z,0
2023-05-06T23:55:25.752Z,0
2023-05-06T23:57:06.173Z,0
2023-05-06T23:58:46.649Z,0
